createdAt,value
2023-01-08T00:00:43.011Z,2.93
2023-01-08T00:03:33.995Z,2.98
2023-01-08T00:06:07.303Z,3.01
2023-01-08T00:08:38.475Z,3.05
2023-01-08T00:11:10.066Z,3.08
2023-01-08T00:13:41.472Z,3.11
2023-01-08T00:16:17.794Z,3.13
2023-01-08T00:18:49.735Z,3.16
2023-01-08T00:21:20.908Z,3.18
2023-01-08T00:23:50.400Z,3.20
2023-01-08T00:26:21.637Z,3.21
2023-01-08T00:28:53.352Z,3.23
2023-01-08T00:31:24.493Z,3.25
2023-01-08T00:33:55.754Z,3.27
2023-01-08T00:36:25.403Z,3.27
2023-01-08T00:38:56.631Z,3.25
2023-01-08T00:41:27.851Z,3.26
2023-01-08T00:43:58.902Z,3.27
2023-01-08T00:46:29.937Z,3.28
2023-01-08T00:48:59.499Z,3.29
2023-01-08T00:51:30.630Z,3.27
2023-01-08T00:54:02.099Z,3.29
2023-01-08T00:56:33.675Z,3.34
2023-01-08T00:59:04.793Z,3.37
2023-01-08T01:01:36.437Z,3.33
2023-01-08T01:04:08.242Z,3.34
2023-01-08T01:06:39.208Z,3.35
2023-01-08T01:09:09.098Z,3.38
2023-01-08T01:11:40.169Z,3.37
2023-01-08T01:14:12.343Z,3.37
2023-01-08T01:16:43.866Z,3.37
2023-01-08T01:19:15.374Z,3.37
2023-01-08T01:21:46.934Z,3.39
2023-01-08T01:24:18.270Z,3.41
2023-01-08T01:26:47.798Z,3.42
2023-01-08T01:29:19.138Z,3.41
2023-01-08T01:31:50.453Z,3.42
2023-01-08T01:34:21.546Z,3.45
2023-01-08T01:36:52.805Z,3.47
2023-01-08T01:39:23.792Z,3.48
2023-01-08T01:41:54.863Z,3.51
2023-01-08T01:44:42.034Z,3.52
2023-01-08T01:47:24.443Z,3.51
2023-01-08T01:50:01.954Z,3.52
2023-01-08T01:52:39.448Z,3.54
2023-01-08T01:55:13.585Z,3.59
2023-01-08T01:57:47.489Z,3.64
2023-01-08T02:00:20.083Z,3.66
2023-01-08T02:02:52.236Z,3.68
2023-01-08T02:05:28.794Z,3.68
2023-01-08T02:08:08.608Z,3.68
2023-01-08T02:10:49.661Z,3.70
2023-01-08T02:13:26.299Z,3.72
2023-01-08T02:16:01.665Z,3.72
2023-01-08T02:18:39.754Z,3.73
2023-01-08T02:21:15.720Z,3.71
2023-01-08T02:23:50.530Z,3.72
2023-01-08T02:26:27.110Z,3.72
2023-01-08T02:29:02.232Z,3.73
2023-01-08T02:31:34.262Z,3.72
2023-01-08T02:34:05.627Z,3.74
2023-01-08T02:36:41.943Z,3.75
2023-01-08T02:39:39.000Z,3.77
2023-01-08T02:42:15.530Z,3.79
2023-01-08T02:44:58.122Z,3.83
2023-01-08T02:47:33.843Z,3.86
2023-01-08T02:50:11.313Z,3.87
2023-01-08T02:52:49.825Z,3.87
2023-01-08T02:55:24.772Z,3.88
2023-01-08T02:57:56.241Z,3.87
2023-01-08T03:00:28.004Z,3.90
2023-01-08T03:03:06.379Z,3.92
2023-01-08T03:05:40.653Z,3.95
2023-01-08T03:08:13.075Z,3.97
2023-01-08T03:10:49.331Z,3.96
2023-01-08T03:13:25.821Z,3.96
2023-01-08T03:16:00.396Z,3.95
2023-01-08T03:18:36.995Z,3.99
2023-01-08T03:21:09.528Z,4.01
2023-01-08T03:23:43.063Z,4.04
2023-01-08T03:26:18.954Z,4.07
2023-01-08T03:28:54.050Z,4.12
2023-01-08T03:31:28.139Z,4.15
2023-01-08T03:34:01.358Z,4.18
2023-01-08T03:36:35.535Z,4.21
2023-01-08T03:39:13.642Z,4.24
2023-01-08T03:41:45.014Z,4.27
2023-01-08T03:44:16.653Z,4.30
2023-01-08T03:46:52.297Z,4.31
2023-01-08T03:49:25.863Z,4.33
2023-01-08T03:51:56.938Z,4.36
2023-01-08T03:54:32.803Z,4.40
2023-01-08T03:57:03.877Z,4.45
2023-01-08T03:59:35.124Z,4.49
2023-01-08T04:02:06.254Z,4.54
2023-01-08T04:04:37.936Z,4.58
2023-01-08T04:07:11.421Z,4.61
2023-01-08T04:09:42.694Z,4.64
2023-01-08T04:12:13.579Z,4.66
2023-01-08T04:14:44.617Z,4.69
2023-01-08T04:17:15.957Z,4.71
2023-01-08T04:19:47.004Z,4.73
2023-01-08T04:22:17.881Z,4.75
2023-01-08T04:24:48.985Z,4.77
2023-01-08T04:27:20.297Z,4.79
2023-01-08T04:29:51.552Z,4.81
2023-01-08T04:32:22.658Z,4.81
2023-01-08T04:34:52.230Z,4.82
2023-01-08T04:37:23.415Z,4.81
2023-01-08T04:39:54.265Z,4.82
2023-01-08T04:42:23.740Z,4.82
2023-01-08T04:44:54.569Z,4.80
2023-01-08T04:47:25.587Z,4.80
2023-01-08T04:49:56.587Z,4.81
2023-01-08T04:52:28.845Z,4.82
2023-01-08T04:54:59.933Z,4.82
2023-01-08T04:57:30.761Z,4.81
2023-01-08T05:00:01.689Z,4.81
2023-01-08T05:02:33.031Z,4.82
2023-01-08T05:05:04.314Z,4.82
2023-01-08T05:07:35.384Z,4.82
2023-01-08T05:10:07.896Z,4.81
2023-01-08T05:12:39.067Z,4.82
2023-01-08T05:15:11.857Z,4.84
2023-01-08T05:17:42.894Z,4.85
2023-01-08T05:20:14.563Z,4.86
2023-01-08T05:22:45.582Z,4.87
2023-01-08T05:25:17.253Z,4.88
2023-01-08T05:27:48.415Z,4.91
2023-01-08T05:30:19.880Z,4.92
2023-01-08T05:32:51.091Z,4.93
2023-01-08T05:35:22.301Z,4.94
2023-01-08T05:37:51.663Z,4.92
2023-01-08T05:40:22.986Z,4.87
2023-01-08T05:43:09.480Z,4.85
2023-01-08T05:45:40.698Z,4.84
2023-01-08T05:48:10.312Z,4.83
2023-01-08T05:50:41.460Z,4.82
2023-01-08T05:53:13.389Z,4.83
2023-01-08T05:55:44.416Z,4.84
2023-01-08T05:58:13.943Z,4.86
2023-01-08T06:00:45.366Z,4.84
2023-01-08T06:03:16.525Z,4.84
2023-01-08T06:05:47.567Z,4.84
2023-01-08T06:08:18.528Z,4.86
2023-01-08T06:10:49.488Z,4.86
2023-01-08T06:13:19.085Z,4.86
2023-01-08T06:15:50.172Z,4.83
2023-01-08T06:18:19.658Z,4.80
2023-01-08T06:20:50.680Z,4.75
2023-01-08T06:23:21.628Z,4.74
2023-01-08T06:25:56.174Z,4.74
2023-01-08T06:28:28.039Z,4.73
2023-01-08T06:31:00.398Z,4.73
2023-01-08T06:33:33.004Z,4.74
2023-01-08T06:36:05.274Z,4.74
2023-01-08T06:38:37.178Z,4.75
2023-01-08T06:41:10.110Z,4.75
2023-01-08T06:43:41.751Z,4.74
2023-01-08T06:46:12.963Z,4.72
2023-01-08T06:48:44.064Z,4.72
2023-01-08T06:51:15.207Z,4.69
2023-01-08T06:53:44.658Z,4.68
2023-01-08T06:56:15.769Z,4.67
2023-01-08T06:58:45.329Z,4.70
2023-01-08T07:01:18.737Z,4.73
2023-01-08T07:03:50.371Z,4.77
2023-01-08T07:06:23.324Z,4.81
2023-01-08T07:08:54.537Z,4.83
2023-01-08T07:11:25.429Z,4.85
2023-01-08T07:13:56.315Z,4.84
2023-01-08T07:16:27.536Z,4.83
2023-01-08T07:18:59.109Z,4.84
2023-01-08T07:21:31.169Z,4.86
2023-01-08T07:24:02.517Z,4.88
2023-01-08T07:26:33.806Z,4.93
2023-01-08T07:29:04.805Z,4.95
2023-01-08T07:31:35.858Z,4.97
2023-01-08T07:34:07.079Z,5.00
2023-01-08T07:36:37.958Z,5.02
2023-01-08T07:39:07.541Z,5.02
2023-01-08T07:41:38.779Z,5.02
2023-01-08T07:44:10.217Z,5.04
2023-01-08T07:46:41.301Z,5.04
2023-01-08T07:49:12.471Z,5.06
2023-01-08T07:51:43.659Z,5.10
2023-01-08T07:54:14.760Z,5.12
2023-01-08T07:56:45.662Z,5.15
2023-01-08T07:59:16.657Z,5.17
2023-01-08T08:01:47.901Z,5.18
2023-01-08T08:04:19.412Z,5.18
2023-01-08T08:06:50.423Z,5.17
2023-01-08T08:09:21.742Z,5.19
2023-01-08T08:11:52.764Z,5.22
2023-01-08T08:14:22.326Z,5.23
2023-01-08T08:16:53.422Z,5.21
2023-01-08T08:19:24.343Z,5.20
2023-01-08T08:21:53.850Z,5.22
2023-01-08T08:24:25.074Z,5.22
2023-01-08T08:26:55.965Z,5.22
2023-01-08T08:29:25.817Z,5.23
2023-01-08T08:31:56.819Z,5.24
2023-01-08T08:34:27.808Z,5.27
2023-01-08T08:36:57.330Z,5.30
2023-01-08T08:39:28.419Z,5.31
2023-01-08T08:41:59.610Z,5.33
2023-01-08T08:44:30.719Z,5.35
2023-01-08T08:47:02.123Z,5.33
2023-01-08T08:49:33.315Z,5.33
2023-01-08T08:52:05.164Z,5.37
2023-01-08T08:54:37.015Z,5.42
2023-01-08T08:57:08.276Z,5.46
2023-01-08T08:59:37.658Z,5.48
2023-01-08T09:02:08.977Z,5.49
2023-01-08T09:04:40.791Z,5.52
2023-01-08T09:07:11.871Z,5.55
2023-01-08T09:09:41.330Z,5.56
2023-01-08T09:12:12.373Z,5.54
2023-01-08T09:14:43.630Z,5.53
2023-01-08T09:17:15.368Z,5.55
2023-01-08T09:19:46.516Z,5.58
2023-01-08T09:22:16.120Z,5.59
2023-01-08T09:24:47.921Z,5.56
2023-01-08T09:27:19.187Z,5.60
2023-01-08T09:29:48.671Z,5.63
2023-01-08T09:32:19.617Z,5.63
2023-01-08T09:34:49.213Z,5.65
2023-01-08T09:37:20.154Z,5.64
2023-01-08T09:40:01.537Z,5.63
2023-01-08T09:42:35.500Z,5.61
2023-01-08T09:45:28.901Z,5.61
2023-01-08T09:48:03.303Z,5.58
2023-01-08T09:50:37.784Z,5.54
2023-01-08T09:53:14.296Z,5.52
2023-01-08T09:55:46.281Z,5.50
2023-01-08T09:58:30.489Z,5.45
2023-01-08T10:01:02.992Z,5.38
2023-01-08T10:03:42.722Z,5.38
2023-01-08T10:06:16.570Z,5.38
2023-01-08T10:08:47.799Z,5.38
2023-01-08T10:11:18.907Z,5.40
2023-01-08T10:13:50.648Z,5.40
2023-01-08T10:16:28.642Z,5.38
2023-01-08T10:19:01.808Z,5.41
2023-01-08T10:21:37.657Z,5.42
2023-01-08T10:24:09.823Z,5.41
2023-01-08T10:26:41.492Z,5.38
2023-01-08T10:29:15.974Z,5.38
2023-01-08T10:31:53.767Z,5.37
2023-01-08T10:34:42.950Z,5.39
2023-01-08T10:37:32.565Z,5.44
2023-01-08T10:40:07.963Z,5.45
2023-01-08T10:42:40.767Z,5.40
2023-01-08T10:45:20.894Z,5.39
2023-01-08T10:47:56.540Z,5.38
2023-01-08T10:50:31.191Z,5.36
2023-01-08T10:53:05.181Z,5.36
2023-01-08T10:55:39.065Z,5.40
2023-01-08T10:58:16.680Z,5.43
2023-01-08T11:00:50.725Z,5.48
2023-01-08T11:03:28.965Z,5.52
2023-01-08T11:06:00.469Z,5.54
2023-01-08T11:08:31.741Z,5.57
2023-01-08T11:11:03.874Z,5.57
2023-01-08T11:13:35.376Z,5.56
2023-01-08T11:16:10.605Z,5.56
2023-01-08T11:18:49.963Z,5.52
2023-01-08T11:21:24.954Z,5.45
2023-01-08T11:24:12.131Z,5.44
2023-01-08T11:26:47.224Z,5.42
2023-01-08T11:29:23.914Z,5.40
2023-01-08T11:32:01.111Z,5.37
2023-01-08T11:34:36.011Z,5.36
2023-01-08T11:37:21.313Z,5.32
2023-01-08T11:39:53.716Z,5.29
2023-01-08T11:42:57.567Z,5.27
2023-01-08T11:45:40.354Z,5.23
2023-01-08T11:48:24.810Z,5.22
2023-01-08T11:52:06.016Z,5.28
2023-01-08T11:54:53.983Z,5.27
2023-01-08T11:57:38.134Z,5.25
2023-01-08T12:00:28.444Z,5.24
2023-01-08T12:03:27.803Z,5.25
2023-01-08T12:06:10.276Z,5.25
2023-01-08T12:08:51.531Z,5.26
2023-01-08T12:11:28.439Z,5.24
2023-01-08T12:14:15.290Z,5.23
2023-01-08T12:17:02.633Z,5.23
2023-01-08T12:19:49.231Z,5.23
2023-01-08T12:22:34.203Z,5.23
2023-01-08T12:25:29.392Z,5.23
2023-01-08T12:28:15.737Z,5.24
2023-01-08T12:31:00.907Z,5.24
2023-01-08T12:33:38.740Z,5.24
2023-01-08T12:36:16.934Z,5.26
2023-01-08T12:38:55.600Z,5.31
2023-01-08T12:41:28.294Z,5.37
2023-01-08T12:44:02.787Z,5.40
2023-01-08T12:46:37.319Z,5.44
2023-01-08T12:49:12.496Z,5.47
2023-01-08T12:51:51.340Z,5.48
2023-01-08T12:54:30.097Z,5.50
2023-01-08T12:57:07.364Z,5.50
2023-01-08T12:59:46.528Z,5.49
2023-01-08T13:02:34.078Z,5.50
2023-01-08T13:05:29.633Z,5.48
2023-01-08T13:08:03.722Z,5.47
2023-01-08T13:10:40.433Z,5.43
2023-01-08T13:13:29.415Z,5.40
2023-01-08T13:16:19.531Z,5.39
2023-01-08T13:19:01.406Z,5.36
2023-01-08T13:21:38.336Z,5.34
2023-01-08T13:24:28.762Z,5.31
2023-01-08T13:27:10.986Z,5.30
2023-01-08T13:29:44.998Z,5.31
2023-01-08T13:32:42.909Z,5.32
2023-01-08T13:35:31.978Z,5.34
2023-01-08T13:38:17.075Z,5.37
2023-01-08T13:40:57.631Z,5.37
2023-01-08T13:43:32.795Z,5.37
2023-01-08T13:46:17.486Z,5.33
2023-01-08T13:48:56.827Z,5.30
2023-01-08T13:51:45.823Z,5.29
2023-01-08T13:54:36.586Z,5.28
2023-01-08T13:57:14.361Z,5.26
2023-01-08T13:59:53.814Z,5.24
2023-01-08T14:02:35.513Z,5.21
2023-01-08T14:05:21.200Z,5.21
2023-01-08T14:07:52.858Z,5.21
2023-01-08T14:10:25.309Z,5.20
2023-01-08T14:13:06.072Z,5.19
2023-01-08T14:15:39.676Z,5.18
2023-01-08T14:18:14.542Z,5.16
2023-01-08T14:20:51.058Z,5.15
2023-01-08T14:23:25.924Z,5.13
2023-01-08T14:25:59.388Z,5.12
2023-01-08T14:28:30.389Z,5.13
2023-01-08T14:31:01.628Z,5.15
2023-01-08T14:33:36.783Z,5.17
2023-01-08T14:36:10.572Z,5.17
2023-01-08T14:38:41.628Z,5.13
2023-01-08T14:41:15.789Z,5.13
2023-01-08T14:43:49.889Z,5.13
2023-01-08T14:46:27.431Z,5.14
2023-01-08T14:48:57.943Z,5.15
2023-01-08T14:51:31.575Z,5.13
2023-01-08T14:54:05.647Z,5.06
2023-01-08T14:56:38.778Z,5.04
2023-01-08T14:59:13.304Z,5.03
2023-01-08T15:01:44.425Z,5.01
2023-01-08T15:04:20.590Z,4.97
2023-01-08T15:06:53.685Z,4.92
2023-01-08T15:09:28.873Z,4.88
2023-01-08T15:12:02.167Z,4.86
2023-01-08T15:14:34.749Z,4.85
2023-01-08T15:17:12.705Z,4.87
2023-01-08T15:19:49.461Z,4.88
2023-01-08T15:22:25.275Z,4.90
2023-01-08T15:25:02.731Z,4.88
2023-01-08T15:27:36.979Z,4.83
2023-01-08T15:30:25.701Z,4.82
2023-01-08T15:33:06.736Z,4.83
2023-01-08T15:35:38.029Z,4.84
2023-01-08T15:38:10.578Z,4.84
2023-01-08T15:40:42.025Z,4.83
2023-01-08T15:43:16.884Z,4.85
2023-01-08T15:45:50.318Z,4.87
2023-01-08T15:48:21.513Z,4.89
2023-01-08T15:50:53.427Z,4.92
2023-01-08T15:53:24.694Z,4.95
2023-01-08T15:55:55.909Z,4.97
2023-01-08T15:58:26.853Z,4.97
2023-01-08T16:00:56.383Z,4.96
2023-01-08T16:03:27.675Z,4.93
2023-01-08T16:05:58.693Z,4.95
2023-01-08T16:08:29.805Z,4.96
2023-01-08T16:11:00.964Z,4.95
2023-01-08T16:13:30.634Z,4.95
2023-01-08T16:16:01.867Z,4.91
2023-01-08T16:18:33.224Z,4.86
2023-01-08T16:21:02.996Z,4.85
2023-01-08T16:23:36.170Z,4.84
2023-01-08T16:26:10.571Z,4.84
2023-01-08T16:28:41.937Z,4.85
2023-01-08T16:31:13.442Z,4.82
2023-01-08T16:33:44.459Z,4.77
2023-01-08T16:36:15.750Z,4.76
2023-01-08T16:38:48.790Z,4.78
2023-01-08T16:41:20.088Z,4.77
2023-01-08T16:43:51.460Z,4.75
2023-01-08T16:46:22.521Z,4.75
2023-01-08T16:48:53.899Z,4.76
2023-01-08T16:51:26.802Z,4.75
2023-01-08T16:53:57.905Z,4.77
2023-01-08T16:56:28.891Z,4.79
2023-01-08T16:58:59.997Z,4.81
2023-01-08T17:01:31.069Z,4.82
2023-01-08T17:04:02.562Z,4.84
2023-01-08T17:06:33.971Z,4.85
2023-01-08T17:09:05.730Z,4.86
2023-01-08T17:11:36.950Z,4.88
2023-01-08T17:14:07.876Z,4.87
2023-01-08T17:16:37.513Z,4.84
2023-01-08T17:19:09.117Z,4.80
2023-01-08T17:21:41.108Z,4.81
2023-01-08T17:24:12.925Z,4.82
2023-01-08T17:26:44.204Z,4.79
2023-01-08T17:29:13.721Z,4.77
2023-01-08T17:31:44.810Z,4.77
2023-01-08T17:34:16.322Z,4.80
2023-01-08T17:36:47.461Z,4.83
2023-01-08T17:39:16.903Z,4.87
2023-01-08T17:42:04.422Z,4.86
2023-01-08T17:44:35.601Z,4.86
2023-01-08T17:47:06.841Z,4.89
2023-01-08T17:49:38.219Z,4.93
2023-01-08T17:52:10.172Z,4.95
2023-01-08T17:54:44.257Z,4.95
2023-01-08T17:57:15.563Z,4.96
2023-01-08T17:59:47.265Z,4.98
2023-01-08T18:02:19.514Z,4.99
2023-01-08T18:04:51.048Z,4.98
2023-01-08T18:07:23.553Z,4.95
2023-01-08T18:09:54.801Z,4.93
2023-01-08T18:12:25.916Z,4.88
2023-01-08T18:14:56.880Z,4.86
2023-01-08T18:17:28.205Z,4.84
2023-01-08T18:19:59.285Z,4.81
2023-01-08T18:22:30.523Z,4.75
2023-01-08T18:25:01.785Z,4.72
2023-01-08T18:27:33.127Z,4.69
2023-01-08T18:30:02.695Z,4.67
2023-01-08T18:32:35.724Z,4.63
2023-01-08T18:35:08.573Z,4.60
2023-01-08T18:37:39.618Z,4.58
2023-01-08T18:40:12.717Z,4.54
2023-01-08T18:42:43.713Z,4.50
2023-01-08T18:45:15.382Z,4.47
2023-01-08T18:47:46.539Z,4.47
2023-01-08T18:50:16.189Z,4.49
2023-01-08T18:52:46.317Z,4.49
2023-01-08T18:55:16.319Z,4.48
2023-01-08T18:57:49.050Z,4.44
2023-01-08T19:00:21.025Z,4.42
2023-01-08T19:02:52.852Z,4.39
2023-01-08T19:05:24.307Z,4.38
2023-01-08T19:07:55.434Z,4.39
2023-01-08T19:10:26.257Z,4.42
2023-01-08T19:12:57.307Z,4.44
2023-01-08T19:15:28.229Z,4.46
2023-01-08T19:18:00.247Z,4.46
2023-01-08T19:20:31.416Z,4.44
2023-01-08T19:23:02.903Z,4.42
2023-01-08T19:25:34.287Z,4.40
2023-01-08T19:28:03.746Z,4.33
2023-01-08T19:30:35.527Z,4.24
2023-01-08T19:33:07.018Z,4.16
2023-01-08T19:35:42.161Z,4.09
2023-01-08T19:38:13.435Z,4.03
2023-01-08T19:40:43.133Z,3.99
2023-01-08T19:43:32.130Z,3.91
2023-01-08T19:46:07.817Z,3.86
2023-01-08T19:48:40.287Z,3.79
2023-01-08T19:51:13.208Z,3.71
2023-01-08T19:53:44.488Z,3.64
2023-01-08T19:56:16.358Z,3.60
2023-01-08T19:58:47.725Z,3.59
2023-01-08T20:01:21.512Z,3.59
2023-01-08T20:03:52.753Z,3.59
2023-01-08T20:06:25.599Z,3.57
2023-01-08T20:09:00.184Z,3.54
2023-01-08T20:11:31.909Z,3.53
2023-01-08T20:14:05.435Z,3.52
2023-01-08T20:16:37.015Z,3.51
2023-01-08T20:19:08.297Z,3.52
2023-01-08T20:21:40.359Z,3.53
2023-01-08T20:24:14.932Z,3.53
2023-01-08T20:26:47.720Z,3.53
2023-01-08T20:29:19.543Z,3.54
2023-01-08T20:31:56.886Z,3.55
2023-01-08T20:34:28.634Z,3.53
2023-01-08T20:37:00.116Z,3.52
2023-01-08T20:39:31.136Z,3.54
2023-01-08T20:42:04.522Z,3.56
2023-01-08T20:44:36.276Z,3.58
2023-01-08T20:47:07.378Z,3.60
2023-01-08T20:49:36.820Z,3.63
2023-01-08T20:52:07.925Z,3.64
2023-01-08T20:54:40.267Z,3.66
2023-01-08T20:57:11.333Z,3.65
2023-01-08T20:59:41.133Z,3.65
2023-01-08T21:02:13.319Z,3.63
2023-01-08T21:04:44.567Z,3.61
2023-01-08T21:07:15.482Z,3.58
2023-01-08T21:09:46.761Z,3.55
2023-01-08T21:12:17.843Z,3.50
2023-01-08T21:14:48.925Z,3.46
2023-01-08T21:17:19.969Z,3.44
2023-01-08T21:19:51.322Z,3.42
2023-01-08T21:22:20.812Z,3.41
2023-01-08T21:24:51.843Z,3.37
2023-01-08T21:27:22.869Z,3.32
2023-01-08T21:29:53.844Z,3.29
2023-01-08T21:32:25.100Z,3.25
2023-01-08T21:34:56.164Z,3.22
2023-01-08T21:37:25.922Z,3.18
2023-01-08T21:39:56.868Z,3.14
2023-01-08T21:42:45.563Z,3.13
2023-01-08T21:45:25.850Z,3.12
2023-01-08T21:47:58.666Z,3.10
2023-01-08T21:50:30.017Z,3.08
2023-01-08T21:53:19.721Z,3.06
2023-01-08T21:55:50.978Z,3.00
2023-01-08T21:58:22.179Z,2.94
2023-01-08T22:00:53.648Z,2.88
2023-01-08T22:03:25.595Z,2.81
2023-01-08T22:06:04.503Z,2.76
2023-01-08T22:08:36.198Z,2.72
2023-01-08T22:11:10.509Z,2.69
2023-01-08T22:13:41.661Z,2.66
2023-01-08T22:16:13.962Z,2.65
2023-01-08T22:18:45.003Z,2.65
2023-01-08T22:21:14.713Z,2.68
2023-01-08T22:23:45.978Z,2.67
2023-01-08T22:26:17.230Z,2.68
2023-01-08T22:28:48.763Z,2.68
2023-01-08T22:31:19.951Z,2.69
2023-01-08T22:33:49.301Z,2.70
2023-01-08T22:36:20.261Z,2.68
2023-01-08T22:38:50.052Z,2.66
2023-01-08T22:41:24.392Z,2.61
2023-01-08T22:43:57.776Z,2.62
2023-01-08T22:46:29.397Z,2.63
2023-01-08T22:49:00.723Z,2.64
2023-01-08T22:51:31.873Z,2.65
2023-01-08T22:54:03.449Z,2.63
2023-01-08T22:56:34.861Z,2.61
2023-01-08T22:59:06.073Z,2.61
2023-01-08T23:01:35.595Z,2.61
2023-01-08T23:04:07.148Z,2.60
2023-01-08T23:06:38.204Z,2.59
2023-01-08T23:09:09.404Z,2.57
2023-01-08T23:11:40.865Z,2.57
2023-01-08T23:14:14.549Z,2.59
2023-01-08T23:16:45.904Z,2.63
2023-01-08T23:19:17.085Z,2.64
2023-01-08T23:21:48.237Z,2.65
2023-01-08T23:24:17.772Z,2.68
2023-01-08T23:26:48.853Z,2.69
2023-01-08T23:29:19.848Z,2.71
2023-01-08T23:31:50.989Z,2.76
2023-01-08T23:34:20.574Z,2.80
2023-01-08T23:36:51.458Z,2.81
2023-01-08T23:39:23.711Z,2.83
2023-01-08T23:41:54.721Z,2.86
2023-01-08T23:44:25.979Z,2.88
2023-01-08T23:46:56.877Z,2.91
2023-01-08T23:49:28.127Z,2.94
2023-01-08T23:51:59.117Z,2.99
2023-01-08T23:54:30.329Z,3.03
2023-01-08T23:57:01.882Z,3.06
2023-01-08T23:59:32.989Z,3.11
